sensor_id;sensor_type;location;lat;lon;timestamp;temperature;humidity
13569;DHT22;6856;51.460;7.158;2023-08-06T00:00:07;20.10;64.50
13569;DHT22;6856;51.460;7.158;2023-08-06T00:02:41;20.10;64.70
13569;DHT22;6856;51.460;7.158;2023-08-06T00:05:15;20.20;64.70
13569;DHT22;6856;51.460;7.158;2023-08-06T00:07:51;20.20;64.70
13569;DHT22;6856;51.460;7.158;2023-08-06T00:10:25;20.20;64.60
13569;DHT22;6856;51.460;7.158;2023-08-06T00:12:59;20.20;64.50
13569;DHT22;6856;51.460;7.158;2023-08-06T00:15:32;20.20;64.50
13569;DHT22;6856;51.460;7.158;2023-08-06T00:18:06;20.20;64.50
13569;DHT22;6856;51.460;7.158;2023-08-06T00:20:40;20.20;64.50
13569;DHT22;6856;51.460;7.158;2023-08-06T00:23:15;20.20;64.50
13569;DHT22;6856;51.460;7.158;2023-08-06T00:25:50;20.20;64.40
13569;DHT22;6856;51.460;7.158;2023-08-06T00:28:23;20.20;64.40
13569;DHT22;6856;51.460;7.158;2023-08-06T00:30:57;20.20;64.40
13569;DHT22;6856;51.460;7.158;2023-08-06T00:33:31;20.20;64.40
13569;DHT22;6856;51.460;7.158;2023-08-06T00:36:04;20.10;64.20
13569;DHT22;6856;51.460;7.158;2023-08-06T00:38:40;20.20;65.10
13569;DHT22;6856;51.460;7.158;2023-08-06T00:41:14;20.10;64.30
13569;DHT22;6856;51.460;7.158;2023-08-06T00:43:47;20.10;64.30
13569;DHT22;6856;51.460;7.158;2023-08-06T00:46:21;20.10;64.30
13569;DHT22;6856;51.460;7.158;2023-08-06T00:48:55;20.10;64.30
13569;DHT22;6856;51.460;7.158;2023-08-06T00:51:30;20.10;64.40
13569;DHT22;6856;51.460;7.158;2023-08-06T00:54:05;20.10;64.40
13569;DHT22;6856;51.460;7.158;2023-08-06T00:56:39;20.10;64.50
13569;DHT22;6856;51.460;7.158;2023-08-06T00:59:45;20.10;64.50
13569;DHT22;6856;51.460;7.158;2023-08-06T01:02:20;20.10;64.70
13569;DHT22;6856;51.460;7.158;2023-08-06T01:04:54;20.10;64.40
13569;DHT22;6856;51.460;7.158;2023-08-06T01:07:41;20.10;64.50
13569;DHT22;6856;51.460;7.158;2023-08-06T01:10:38;20.10;64.70
13569;DHT22;6856;51.460;7.158;2023-08-06T01:13:28;20.10;64.70
13569;DHT22;6856;51.460;7.158;2023-08-06T01:16:06;20.10;64.60
13569;DHT22;6856;51.460;7.158;2023-08-06T01:18:42;20.10;64.60
13569;DHT22;6856;51.460;7.158;2023-08-06T01:21:19;20.10;64.50
13569;DHT22;6856;51.460;7.158;2023-08-06T01:23:53;20.10;64.50
13569;DHT22;6856;51.460;7.158;2023-08-06T01:26:32;20.10;64.50
13569;DHT22;6856;51.460;7.158;2023-08-06T01:29:17;20.10;64.50
13569;DHT22;6856;51.460;7.158;2023-08-06T01:31:56;20.00;64.50
13569;DHT22;6856;51.460;7.158;2023-08-06T01:34:34;20.10;64.40
13569;DHT22;6856;51.460;7.158;2023-08-06T01:37:10;20.10;65.20
13569;DHT22;6856;51.460;7.158;2023-08-06T01:39:44;20.00;64.50
13569;DHT22;6856;51.460;7.158;2023-08-06T01:42:18;20.00;64.30
13569;DHT22;6856;51.460;7.158;2023-08-06T01:44:52;20.00;64.30
13569;DHT22;6856;51.460;7.158;2023-08-06T01:47:26;20.00;64.30
13569;DHT22;6856;51.460;7.158;2023-08-06T01:50:00;20.00;64.40
13569;DHT22;6856;51.460;7.158;2023-08-06T01:52:35;20.00;64.40
13569;DHT22;6856;51.460;7.158;2023-08-06T01:55:09;20.00;64.50
13569;DHT22;6856;51.460;7.158;2023-08-06T01:58:07;19.90;64.50
13569;DHT22;6856;51.460;7.158;2023-08-06T02:00:41;19.90;64.80
13569;DHT22;6856;51.460;7.158;2023-08-06T02:03:15;19.90;64.50
13569;DHT22;6856;51.460;7.158;2023-08-06T02:05:49;19.90;64.60
13569;DHT22;6856;51.460;7.158;2023-08-06T02:08:29;19.90;64.50
13569;DHT22;6856;51.460;7.158;2023-08-06T02:11:07;19.90;64.50
13569;DHT22;6856;51.460;7.158;2023-08-06T02:13:42;19.90;64.60
13569;DHT22;6856;51.460;7.158;2023-08-06T02:16:16;19.90;64.60
13569;DHT22;6856;51.460;7.158;2023-08-06T02:18:49;19.90;64.60
13569;DHT22;6856;51.460;7.158;2023-08-06T02:21:23;19.90;64.60
13569;DHT22;6856;51.460;7.158;2023-08-06T02:23:58;19.90;64.50
13569;DHT22;6856;51.460;7.158;2023-08-06T02:26:33;19.90;64.50
13569;DHT22;6856;51.460;7.158;2023-08-06T02:29:07;19.90;64.50
13569;DHT22;6856;51.460;7.158;2023-08-06T02:31:40;19.80;64.50
13569;DHT22;6856;51.460;7.158;2023-08-06T02:34:14;19.80;64.60
13569;DHT22;6856;51.460;7.158;2023-08-06T02:37:12;19.80;64.70
13569;DHT22;6856;51.460;7.158;2023-08-06T02:39:48;19.80;64.90
13569;DHT22;6856;51.460;7.158;2023-08-06T02:42:22;19.80;64.50
13569;DHT22;6856;51.460;7.158;2023-08-06T02:44:57;19.50;64.40
13569;DHT22;6856;51.460;7.158;2023-08-06T02:47:31;19.80;64.70
13569;DHT22;6856;51.460;7.158;2023-08-06T02:50:06;19.70;64.50
13569;DHT22;6856;51.460;7.158;2023-08-06T02:52:40;19.80;64.80
13569;DHT22;6856;51.460;7.158;2023-08-06T02:55:16;19.70;64.70
13569;DHT22;6856;51.460;7.158;2023-08-06T02:58:14;19.70;64.70
13569;DHT22;6856;51.460;7.158;2023-08-06T03:00:59;19.70;64.80
13569;DHT22;6856;51.460;7.158;2023-08-06T03:03:35;19.70;64.70
13569;DHT22;6856;51.460;7.158;2023-08-06T03:06:09;19.70;64.60
13569;DHT22;6856;51.460;7.158;2023-08-06T03:08:48;19.70;64.70
13569;DHT22;6856;51.460;7.158;2023-08-06T03:11:24;19.70;64.70
13569;DHT22;6856;51.460;7.158;2023-08-06T03:13:58;19.70;64.70
13569;DHT22;6856;51.460;7.158;2023-08-06T03:16:37;19.70;64.70
13569;DHT22;6856;51.460;7.158;2023-08-06T03:19:11;19.60;64.80
13569;DHT22;6856;51.460;7.158;2023-08-06T03:21:44;19.60;64.80
13569;DHT22;6856;51.460;7.158;2023-08-06T03:24:18;19.60;64.80
13569;DHT22;6856;51.460;7.158;2023-08-06T03:26:54;19.60;65.40
13569;DHT22;6856;51.460;7.158;2023-08-06T03:29:27;19.60;64.70
13569;DHT22;6856;51.460;7.158;2023-08-06T03:32:01;19.60;64.80
13569;DHT22;6856;51.460;7.158;2023-08-06T03:34:35;19.60;64.70
13569;DHT22;6856;51.460;7.158;2023-08-06T03:37:08;19.60;64.70
13569;DHT22;6856;51.460;7.158;2023-08-06T03:39:42;19.60;64.70
13569;DHT22;6856;51.460;7.158;2023-08-06T03:42:42;19.60;64.70
13569;DHT22;6856;51.460;7.158;2023-08-06T03:45:16;19.50;64.90
13569;DHT22;6856;51.460;7.158;2023-08-06T03:47:49;19.50;64.70
13569;DHT22;6856;51.460;7.158;2023-08-06T03:50:23;19.50;64.80
13569;DHT22;6856;51.460;7.158;2023-08-06T03:52:57;19.50;64.70
13569;DHT22;6856;51.460;7.158;2023-08-06T03:55:31;19.50;64.90
13569;DHT22;6856;51.460;7.158;2023-08-06T03:58:12;19.40;64.80
13569;DHT22;6856;51.460;7.158;2023-08-06T04:00:46;19.40;65.00
13569;DHT22;6856;51.460;7.158;2023-08-06T04:03:20;19.40;65.00
13569;DHT22;6856;51.460;7.158;2023-08-06T04:06:18;19.40;65.70
13569;DHT22;6856;51.460;7.158;2023-08-06T04:08:52;19.40;65.10
13569;DHT22;6856;51.460;7.158;2023-08-06T04:11:26;19.40;64.90
13569;DHT22;6856;51.460;7.158;2023-08-06T04:14:02;19.40;65.00
13569;DHT22;6856;51.460;7.158;2023-08-06T04:16:35;19.40;65.00
13569;DHT22;6856;51.460;7.158;2023-08-06T04:19:09;19.40;65.10
13569;DHT22;6856;51.460;7.158;2023-08-06T04:21:45;19.40;65.10
13569;DHT22;6856;51.460;7.158;2023-08-06T04:24:18;19.40;65.10
13569;DHT22;6856;51.460;7.158;2023-08-06T04:26:52;19.30;65.00
13569;DHT22;6856;51.460;7.158;2023-08-06T04:29:27;19.40;65.10
13569;DHT22;6856;51.460;7.158;2023-08-06T04:32:00;19.30;65.10
13569;DHT22;6856;51.460;7.158;2023-08-06T04:34:35;19.30;65.00
13569;DHT22;6856;51.460;7.158;2023-08-06T04:37:09;19.30;65.00
13569;DHT22;6856;51.460;7.158;2023-08-06T04:39:43;19.30;65.10
13569;DHT22;6856;51.460;7.158;2023-08-06T04:42:23;19.30;65.20
13569;DHT22;6856;51.460;7.158;2023-08-06T04:45:02;19.40;65.30
13569;DHT22;6856;51.460;7.158;2023-08-06T04:47:35;19.30;65.30
13569;DHT22;6856;51.460;7.158;2023-08-06T04:50:09;19.40;65.30
13569;DHT22;6856;51.460;7.158;2023-08-06T04:52:44;19.40;65.30
13569;DHT22;6856;51.460;7.158;2023-08-06T04:55:18;19.30;65.30
13569;DHT22;6856;51.460;7.158;2023-08-06T04:58:16;19.40;65.30
13569;DHT22;6856;51.460;7.158;2023-08-06T05:00:53;19.40;65.50
13569;DHT22;6856;51.460;7.158;2023-08-06T05:03:27;19.40;65.30
13569;DHT22;6856;51.460;7.158;2023-08-06T05:06:00;19.40;65.20
13569;DHT22;6856;51.460;7.158;2023-08-06T05:08:34;19.40;65.30
13569;DHT22;6856;51.460;7.158;2023-08-06T05:11:33;19.40;65.40
13569;DHT22;6856;51.460;7.158;2023-08-06T05:14:07;19.40;65.60
13569;DHT22;6856;51.460;7.158;2023-08-06T05:16:42;19.40;65.40
13569;DHT22;6856;51.460;7.158;2023-08-06T05:19:16;19.40;65.40
13569;DHT22;6856;51.460;7.158;2023-08-06T05:21:50;19.40;65.50
13569;DHT22;6856;51.460;7.158;2023-08-06T05:24:23;19.40;65.40
13569;DHT22;6856;51.460;7.158;2023-08-06T05:26:57;19.40;65.40
13569;DHT22;6856;51.460;7.158;2023-08-06T05:29:31;19.40;65.40
13569;DHT22;6856;51.460;7.158;2023-08-06T05:32:07;19.40;65.50
13569;DHT22;6856;51.460;7.158;2023-08-06T05:34:41;19.50;65.70
13569;DHT22;6856;51.460;7.158;2023-08-06T05:37:15;19.50;65.70
13569;DHT22;6856;51.460;7.158;2023-08-06T05:39:48;19.50;65.70
13569;DHT22;6856;51.460;7.158;2023-08-06T05:42:22;19.50;65.70
13569;DHT22;6856;51.460;7.158;2023-08-06T05:44:56;19.50;65.70
13569;DHT22;6856;51.460;7.158;2023-08-06T05:47:32;19.60;65.80
13569;DHT22;6856;51.460;7.158;2023-08-06T05:50:07;19.60;65.70
13569;DHT22;6856;51.460;7.158;2023-08-06T05:52:41;19.80;66.00
13569;DHT22;6856;51.460;7.158;2023-08-06T05:55:15;19.60;65.70
13569;DHT22;6856;51.460;7.158;2023-08-06T05:57:55;19.60;65.60
13569;DHT22;6856;51.460;7.158;2023-08-06T06:00:32;19.60;65.70
13569;DHT22;6856;51.460;7.158;2023-08-06T06:03:08;19.70;65.90
13569;DHT22;6856;51.460;7.158;2023-08-06T06:05:42;19.70;65.80
13569;DHT22;6856;51.460;7.158;2023-08-06T06:08:16;19.70;65.80
13569;DHT22;6856;51.460;7.158;2023-08-06T06:10:49;19.70;65.80
13569;DHT22;6856;51.460;7.158;2023-08-06T06:13:23;19.80;65.80
13569;DHT22;6856;51.460;7.158;2023-08-06T06:15:57;19.80;65.60
13569;DHT22;6856;51.460;7.158;2023-08-06T06:18:33;19.80;65.60
13569;DHT22;6856;51.460;7.158;2023-08-06T06:21:07;19.90;65.60
13569;DHT22;6856;51.460;7.158;2023-08-06T06:23:41;19.90;65.60
13569;DHT22;6856;51.460;7.158;2023-08-06T06:26:14;19.90;65.70
13569;DHT22;6856;51.460;7.158;2023-08-06T06:28:48;19.90;65.50
13569;DHT22;6856;51.460;7.158;2023-08-06T06:31:21;20.00;65.60
13569;DHT22;6856;51.460;7.158;2023-08-06T06:33:57;20.00;65.40
13569;DHT22;6856;51.460;7.158;2023-08-06T06:36:30;20.00;65.40
13569;DHT22;6856;51.460;7.158;2023-08-06T06:39:04;20.10;65.50
13569;DHT22;6856;51.460;7.158;2023-08-06T06:41:38;20.10;65.60
13569;DHT22;6856;51.460;7.158;2023-08-06T06:44:13;20.10;65.40
13569;DHT22;6856;51.460;7.158;2023-08-06T06:46:47;20.10;65.30
13569;DHT22;6856;51.460;7.158;2023-08-06T06:49:22;20.10;65.10
13569;DHT22;6856;51.460;7.158;2023-08-06T06:51:56;20.20;65.30
13569;DHT22;6856;51.460;7.158;2023-08-06T06:54:30;20.20;66.10
13569;DHT22;6856;51.460;7.158;2023-08-06T06:57:04;20.20;65.30
13569;DHT22;6856;51.460;7.158;2023-08-06T06:59:39;20.20;65.20
13569;DHT22;6856;51.460;7.158;2023-08-06T07:02:12;20.30;65.30
13569;DHT22;6856;51.460;7.158;2023-08-06T07:04:49;20.30;65.50
13569;DHT22;6856;51.460;7.158;2023-08-06T07:07:23;20.30;65.40
13569;DHT22;6856;51.460;7.158;2023-08-06T07:09:56;20.30;65.30
13569;DHT22;6856;51.460;7.158;2023-08-06T07:12:30;20.00;65.20
13569;DHT22;6856;51.460;7.158;2023-08-06T07:15:05;20.30;65.50
13569;DHT22;6856;51.460;7.158;2023-08-06T07:17:40;20.40;65.40
13569;DHT22;6856;51.460;7.158;2023-08-06T07:20:16;20.40;65.10
13569;DHT22;6856;51.460;7.158;2023-08-06T07:22:50;20.40;65.00
13569;DHT22;6856;51.460;7.158;2023-08-06T07:25:24;20.40;65.00
13569;DHT22;6856;51.460;7.158;2023-08-06T07:27:58;20.40;65.10
13569;DHT22;6856;51.460;7.158;2023-08-06T07:30:34;20.40;64.90
13569;DHT22;6856;51.460;7.158;2023-08-06T07:33:14;20.40;64.90
13569;DHT22;6856;51.460;7.158;2023-08-06T07:35:49;20.40;64.80
13569;DHT22;6856;51.460;7.158;2023-08-06T07:38:23;20.40;64.70
13569;DHT22;6856;51.460;7.158;2023-08-06T07:40:56;20.40;64.70
13569;DHT22;6856;51.460;7.158;2023-08-06T07:43:30;20.40;64.80
13569;DHT22;6856;51.460;7.158;2023-08-06T07:46:04;20.40;64.90
13569;DHT22;6856;51.460;7.158;2023-08-06T07:48:38;20.40;65.20
13569;DHT22;6856;51.460;7.158;2023-08-06T07:51:14;20.40;65.90
13569;DHT22;6856;51.460;7.158;2023-08-06T07:53:47;20.50;66.60
13569;DHT22;6856;51.460;7.158;2023-08-06T07:56:21;20.60;66.90
13569;DHT22;6856;51.460;7.158;2023-08-06T07:58:55;20.60;66.30
13569;DHT22;6856;51.460;7.158;2023-08-06T08:01:28;20.70;65.90
13569;DHT22;6856;51.460;7.158;2023-08-06T08:04:02;20.80;65.50
13569;DHT22;6856;51.460;7.158;2023-08-06T08:06:39;20.80;65.00
13569;DHT22;6856;51.460;7.158;2023-08-06T08:09:12;20.80;64.50
13569;DHT22;6856;51.460;7.158;2023-08-06T08:11:46;20.90;64.30
13569;DHT22;6856;51.460;7.158;2023-08-06T08:14:20;20.90;64.20
13569;DHT22;6856;51.460;7.158;2023-08-06T08:16:55;21.10;64.20
13569;DHT22;6856;51.460;7.158;2023-08-06T08:19:29;21.00;64.10
13569;DHT22;6856;51.460;7.158;2023-08-06T08:22:04;21.00;65.30
13569;DHT22;6856;51.460;7.158;2023-08-06T08:24:38;21.10;64.70
13569;DHT22;6856;51.460;7.158;2023-08-06T08:27:12;21.10;64.70
13569;DHT22;6856;51.460;7.158;2023-08-06T08:29:46;21.20;64.50
13569;DHT22;6856;51.460;7.158;2023-08-06T08:32:20;21.30;64.80
13569;DHT22;6856;51.460;7.158;2023-08-06T08:34:54;21.40;65.00
13569;DHT22;6856;51.460;7.158;2023-08-06T08:37:30;21.40;64.60
13569;DHT22;6856;51.460;7.158;2023-08-06T08:40:09;21.50;64.20
13569;DHT22;6856;51.460;7.158;2023-08-06T08:42:43;21.50;63.70
13569;DHT22;6856;51.460;7.158;2023-08-06T08:45:20;21.60;63.90
13569;DHT22;6856;51.460;7.158;2023-08-06T08:48:00;21.60;63.50
13569;DHT22;6856;51.460;7.158;2023-08-06T08:50:34;21.70;63.20
13569;DHT22;6856;51.460;7.158;2023-08-06T08:53:11;21.70;62.80
13569;DHT22;6856;51.460;7.158;2023-08-06T08:55:48;21.60;62.60
13569;DHT22;6856;51.460;7.158;2023-08-06T08:58:22;21.60;62.50
13569;DHT22;6856;51.460;7.158;2023-08-06T09:00:56;21.60;62.50
13569;DHT22;6856;51.460;7.158;2023-08-06T09:03:31;21.50;62.50
13569;DHT22;6856;51.460;7.158;2023-08-06T09:06:06;21.40;62.40
13569;DHT22;6856;51.460;7.158;2023-08-06T09:08:51;21.40;62.50
13569;DHT22;6856;51.460;7.158;2023-08-06T09:11:33;21.30;62.80
13569;DHT22;6856;51.460;7.158;2023-08-06T09:14:12;21.20;63.00
13569;DHT22;6856;51.460;7.158;2023-08-06T09:16:47;21.20;63.30
13569;DHT22;6856;51.460;7.158;2023-08-06T09:19:21;21.10;63.70
13569;DHT22;6856;51.460;7.158;2023-08-06T09:21:56;21.10;64.00
13569;DHT22;6856;51.460;7.158;2023-08-06T09:24:31;21.10;64.30
13569;DHT22;6856;51.460;7.158;2023-08-06T09:27:08;21.00;64.40
13569;DHT22;6856;51.460;7.158;2023-08-06T09:29:45;21.00;64.60
13569;DHT22;6856;51.460;7.158;2023-08-06T09:32:20;21.10;64.70
13569;DHT22;6856;51.460;7.158;2023-08-06T09:34:56;21.00;64.70
13569;DHT22;6856;51.460;7.158;2023-08-06T09:37:35;20.90;64.90
13569;DHT22;6856;51.460;7.158;2023-08-06T09:40:27;21.00;65.20
13569;DHT22;6856;51.460;7.158;2023-08-06T09:43:01;21.00;65.60
13569;DHT22;6856;51.460;7.158;2023-08-06T09:45:38;21.00;65.40
13569;DHT22;6856;51.460;7.158;2023-08-06T09:48:11;21.00;65.50
13569;DHT22;6856;51.460;7.158;2023-08-06T09:50:45;21.00;65.60
13569;DHT22;6856;51.460;7.158;2023-08-06T09:53:22;21.00;65.70
13569;DHT22;6856;51.460;7.158;2023-08-06T09:56:03;21.00;65.70
13569;DHT22;6856;51.460;7.158;2023-08-06T09:58:38;21.00;65.80
13569;DHT22;6856;51.460;7.158;2023-08-06T10:01:13;21.10;66.00
13569;DHT22;6856;51.460;7.158;2023-08-06T10:03:49;21.10;66.00
13569;DHT22;6856;51.460;7.158;2023-08-06T10:06:26;21.10;65.90
13569;DHT22;6856;51.460;7.158;2023-08-06T10:09:03;21.10;66.00
13569;DHT22;6856;51.460;7.158;2023-08-06T10:11:39;21.20;65.80
13569;DHT22;6856;51.460;7.158;2023-08-06T10:14:16;21.20;65.90
13569;DHT22;6856;51.460;7.158;2023-08-06T10:16:54;21.20;65.80
13569;DHT22;6856;51.460;7.158;2023-08-06T10:19:31;21.20;65.90
13569;DHT22;6856;51.460;7.158;2023-08-06T10:22:09;21.30;66.00
13569;DHT22;6856;51.460;7.158;2023-08-06T10:24:48;21.30;65.80
13569;DHT22;6856;51.460;7.158;2023-08-06T10:27:29;21.40;65.90
13569;DHT22;6856;51.460;7.158;2023-08-06T10:30:22;21.40;66.30
13569;DHT22;6856;51.460;7.158;2023-08-06T10:32:58;21.40;65.60
13569;DHT22;6856;51.460;7.158;2023-08-06T10:35:38;21.50;65.60
13569;DHT22;6856;51.460;7.158;2023-08-06T10:38:17;21.50;66.00
13569;DHT22;6856;51.460;7.158;2023-08-06T10:41:01;21.60;66.00
13569;DHT22;6856;51.460;7.158;2023-08-06T10:43:42;21.70;65.80
13569;DHT22;6856;51.460;7.158;2023-08-06T10:46:22;21.80;65.80
13569;DHT22;6856;51.460;7.158;2023-08-06T10:49:00;21.80;66.10
13569;DHT22;6856;51.460;7.158;2023-08-06T10:51:34;21.90;65.50
13569;DHT22;6856;51.460;7.158;2023-08-06T10:54:09;22.00;65.20
13569;DHT22;6856;51.460;7.158;2023-08-06T10:56:44;22.10;64.70
13569;DHT22;6856;51.460;7.158;2023-08-06T10:59:21;22.20;64.10
13569;DHT22;6856;51.460;7.158;2023-08-06T11:01:55;22.20;63.50
13569;DHT22;6856;51.460;7.158;2023-08-06T11:04:30;22.30;63.60
13569;DHT22;6856;51.460;7.158;2023-08-06T11:07:07;22.30;63.60
13569;DHT22;6856;51.460;7.158;2023-08-06T11:09:40;22.30;63.50
13569;DHT22;6856;51.460;7.158;2023-08-06T11:12:18;22.30;63.70
13569;DHT22;6856;51.460;7.158;2023-08-06T11:14:54;22.30;63.80
13569;DHT22;6856;51.460;7.158;2023-08-06T11:17:29;22.30;64.10
13569;DHT22;6856;51.460;7.158;2023-08-06T11:20:05;22.30;64.00
13569;DHT22;6856;51.460;7.158;2023-08-06T11:22:39;22.30;63.60
13569;DHT22;6856;51.460;7.158;2023-08-06T11:25:13;22.30;63.60
13569;DHT22;6856;51.460;7.158;2023-08-06T11:27:47;22.30;63.70
13569;DHT22;6856;51.460;7.158;2023-08-06T11:30:23;22.20;63.00
13569;DHT22;6856;51.460;7.158;2023-08-06T11:32:57;22.20;62.70
13569;DHT22;6856;51.460;7.158;2023-08-06T11:35:33;22.20;62.60
13569;DHT22;6856;51.460;7.158;2023-08-06T11:38:07;22.10;62.50
13569;DHT22;6856;51.460;7.158;2023-08-06T11:40:43;22.10;62.80
13569;DHT22;6856;51.460;7.158;2023-08-06T11:43:19;22.10;63.20
13569;DHT22;6856;51.460;7.158;2023-08-06T11:45:57;22.10;63.50
13569;DHT22;6856;51.460;7.158;2023-08-06T11:48:32;22.10;64.00
13569;DHT22;6856;51.460;7.158;2023-08-06T11:51:12;22.10;64.20
13569;DHT22;6856;51.460;7.158;2023-08-06T11:53:48;22.10;63.80
13569;DHT22;6856;51.460;7.158;2023-08-06T11:56:22;22.10;64.00
13569;DHT22;6856;51.460;7.158;2023-08-06T11:58:57;22.10;63.90
13569;DHT22;6856;51.460;7.158;2023-08-06T12:01:57;22.10;63.90
13569;DHT22;6856;51.460;7.158;2023-08-06T12:04:58;22.10;63.80
13569;DHT22;6856;51.460;7.158;2023-08-06T12:07:38;22.10;63.30
13569;DHT22;6856;51.460;7.158;2023-08-06T12:10:15;21.80;62.60
13569;DHT22;6856;51.460;7.158;2023-08-06T12:12:51;21.90;62.50
13569;DHT22;6856;51.460;7.158;2023-08-06T12:15:26;21.80;62.40
13569;DHT22;6856;51.460;7.158;2023-08-06T12:18:05;21.80;62.50
13569;DHT22;6856;51.460;7.158;2023-08-06T12:20:40;21.60;62.40
13569;DHT22;6856;51.460;7.158;2023-08-06T12:23:13;21.50;62.40
13569;DHT22;6856;51.460;7.158;2023-08-06T12:25:47;21.40;62.50
13569;DHT22;6856;51.460;7.158;2023-08-06T12:28:25;21.20;62.60
13569;DHT22;6856;51.460;7.158;2023-08-06T12:30:59;21.10;63.00
13569;DHT22;6856;51.460;7.158;2023-08-06T12:33:35;20.80;63.20
13569;DHT22;6856;51.460;7.158;2023-08-06T12:36:08;20.90;63.30
13569;DHT22;6856;51.460;7.158;2023-08-06T12:39:08;20.80;63.20
13569;DHT22;6856;51.460;7.158;2023-08-06T12:41:42;20.70;63.40
13569;DHT22;6856;51.460;7.158;2023-08-06T12:44:18;20.60;63.40
13569;DHT22;6856;51.460;7.158;2023-08-06T12:46:51;20.50;63.50
13569;DHT22;6856;51.460;7.158;2023-08-06T12:49:27;20.40;63.50
13569;DHT22;6856;51.460;7.158;2023-08-06T12:52:01;20.30;63.60
13569;DHT22;6856;51.460;7.158;2023-08-06T12:54:36;20.20;63.60
13569;DHT22;6856;51.460;7.158;2023-08-06T12:57:10;20.10;63.70
13569;DHT22;6856;51.460;7.158;2023-08-06T12:59:44;20.00;63.70
13569;DHT22;6856;51.460;7.158;2023-08-06T13:02:18;20.00;63.80
13569;DHT22;6856;51.460;7.158;2023-08-06T13:04:53;19.90;63.80
13569;DHT22;6856;51.460;7.158;2023-08-06T13:07:27;19.80;64.30
13569;DHT22;6856;51.460;7.158;2023-08-06T13:10:01;19.70;64.30
13569;DHT22;6856;51.460;7.158;2023-08-06T13:12:36;19.60;64.30
13569;DHT22;6856;51.460;7.158;2023-08-06T13:15:09;19.60;64.60
13569;DHT22;6856;51.460;7.158;2023-08-06T13:17:44;19.60;64.70
13569;DHT22;6856;51.460;7.158;2023-08-06T13:20:19;19.50;65.10
13569;DHT22;6856;51.460;7.158;2023-08-06T13:22:55;19.50;65.30
13569;DHT22;6856;51.460;7.158;2023-08-06T13:25:29;19.40;65.40
13569;DHT22;6856;51.460;7.158;2023-08-06T13:28:02;19.40;65.60
13569;DHT22;6856;51.460;7.158;2023-08-06T13:30:36;19.40;65.80
13569;DHT22;6856;51.460;7.158;2023-08-06T13:33:14;19.40;65.80
13569;DHT22;6856;51.460;7.158;2023-08-06T13:35:50;19.40;65.90
13569;DHT22;6856;51.460;7.158;2023-08-06T13:38:23;19.40;66.20
13569;DHT22;6856;51.460;7.158;2023-08-06T13:40:57;19.40;66.00
13569;DHT22;6856;51.460;7.158;2023-08-06T13:43:31;19.40;66.10
13569;DHT22;6856;51.460;7.158;2023-08-06T13:46:10;19.40;66.30
13569;DHT22;6856;51.460;7.158;2023-08-06T13:48:49;19.30;66.40
13569;DHT22;6856;51.460;7.158;2023-08-06T13:51:25;19.30;66.20
13569;DHT22;6856;51.460;7.158;2023-08-06T13:53:59;19.30;66.20
13569;DHT22;6856;51.460;7.158;2023-08-06T13:56:33;19.20;66.20
13569;DHT22;6856;51.460;7.158;2023-08-06T13:59:09;19.20;66.20
13569;DHT22;6856;51.460;7.158;2023-08-06T14:01:45;19.20;66.30
13569;DHT22;6856;51.460;7.158;2023-08-06T14:04:24;19.10;66.50
13569;DHT22;6856;51.460;7.158;2023-08-06T14:06:59;19.10;66.60
13569;DHT22;6856;51.460;7.158;2023-08-06T14:09:33;19.10;66.80
13569;DHT22;6856;51.460;7.158;2023-08-06T14:12:07;19.10;66.90
13569;DHT22;6856;51.460;7.158;2023-08-06T14:14:46;19.10;67.10
13569;DHT22;6856;51.460;7.158;2023-08-06T14:17:20;19.10;67.30
13569;DHT22;6856;51.460;7.158;2023-08-06T14:19:53;19.10;67.20
13569;DHT22;6856;51.460;7.158;2023-08-06T14:22:29;19.10;67.20
13569;DHT22;6856;51.460;7.158;2023-08-06T14:25:04;19.10;67.20
13569;DHT22;6856;51.460;7.158;2023-08-06T14:27:38;19.10;67.30
13569;DHT22;6856;51.460;7.158;2023-08-06T14:30:13;19.10;67.30
13569;DHT22;6856;51.460;7.158;2023-08-06T14:32:46;19.10;67.20
13569;DHT22;6856;51.460;7.158;2023-08-06T14:35:20;19.10;67.40
13569;DHT22;6856;51.460;7.158;2023-08-06T14:37:56;19.00;67.40
13569;DHT22;6856;51.460;7.158;2023-08-06T14:40:34;19.00;67.40
13569;DHT22;6856;51.460;7.158;2023-08-06T14:43:10;19.00;67.50
13569;DHT22;6856;51.460;7.158;2023-08-06T14:45:46;18.70;66.90
13569;DHT22;6856;51.460;7.158;2023-08-06T14:48:20;19.00;67.30
13569;DHT22;6856;51.460;7.158;2023-08-06T14:50:54;18.90;67.50
13569;DHT22;6856;51.460;7.158;2023-08-06T14:53:29;18.90;67.60
13569;DHT22;6856;51.460;7.158;2023-08-06T14:56:03;18.90;67.70
13569;DHT22;6856;51.460;7.158;2023-08-06T14:58:38;18.70;67.60
13569;DHT22;6856;51.460;7.158;2023-08-06T15:01:12;18.90;67.80
13569;DHT22;6856;51.460;7.158;2023-08-06T15:03:46;18.90;67.70
13569;DHT22;6856;51.460;7.158;2023-08-06T15:06:20;18.90;67.70
13569;DHT22;6856;51.460;7.158;2023-08-06T15:08:56;18.90;67.70
13569;DHT22;6856;51.460;7.158;2023-08-06T15:11:32;18.90;67.70
13569;DHT22;6856;51.460;7.158;2023-08-06T15:14:06;18.90;67.70
13569;DHT22;6856;51.460;7.158;2023-08-06T15:16:47;18.90;67.70
13569;DHT22;6856;51.460;7.158;2023-08-06T15:19:23;18.90;67.90
13569;DHT22;6856;51.460;7.158;2023-08-06T15:21:57;18.90;67.80
13569;DHT22;6856;51.460;7.158;2023-08-06T15:24:33;18.90;67.90
13569;DHT22;6856;51.460;7.158;2023-08-06T15:27:08;19.00;68.00
13569;DHT22;6856;51.460;7.158;2023-08-06T15:33:06;19.00;68.30
13569;DHT22;6856;51.460;7.158;2023-08-06T15:35:39;19.00;67.80
13569;DHT22;6856;51.460;7.158;2023-08-06T15:38:13;19.00;67.60
13569;DHT22;6856;51.460;7.158;2023-08-06T15:40:49;19.00;67.70
13569;DHT22;6856;51.460;7.158;2023-08-06T15:43:23;19.00;67.80
13569;DHT22;6856;51.460;7.158;2023-08-06T15:45:57;19.00;67.90
13569;DHT22;6856;51.460;7.158;2023-08-06T15:48:30;19.00;67.90
13569;DHT22;6856;51.460;7.158;2023-08-06T15:51:04;19.00;67.70
13569;DHT22;6856;51.460;7.158;2023-08-06T15:53:38;19.00;67.70
13569;DHT22;6856;51.460;7.158;2023-08-06T15:56:13;19.00;67.70
13569;DHT22;6856;51.460;7.158;2023-08-06T15:58:46;19.00;67.70
13569;DHT22;6856;51.460;7.158;2023-08-06T16:01:22;19.10;67.80
13569;DHT22;6856;51.460;7.158;2023-08-06T16:03:56;19.10;67.80
13569;DHT22;6856;51.460;7.158;2023-08-06T16:06:30;19.00;67.80
13569;DHT22;6856;51.460;7.158;2023-08-06T16:09:04;19.00;67.70
13569;DHT22;6856;51.460;7.158;2023-08-06T16:11:39;19.00;67.80
13569;DHT22;6856;51.460;7.158;2023-08-06T16:14:14;19.00;67.80
13569;DHT22;6856;51.460;7.158;2023-08-06T16:16:47;19.00;67.60
13569;DHT22;6856;51.460;7.158;2023-08-06T16:19:21;19.00;67.50
13569;DHT22;6856;51.460;7.158;2023-08-06T16:21:55;19.00;67.50
13569;DHT22;6856;51.460;7.158;2023-08-06T16:24:29;19.00;67.50
13569;DHT22;6856;51.460;7.158;2023-08-06T16:27:04;19.00;67.30
13569;DHT22;6856;51.460;7.158;2023-08-06T16:29:38;18.90;67.10
13569;DHT22;6856;51.460;7.158;2023-08-06T16:32:12;18.90;67.10
13569;DHT22;6856;51.460;7.158;2023-08-06T16:34:45;18.90;67.10
13569;DHT22;6856;51.460;7.158;2023-08-06T16:37:20;18.90;67.10
13569;DHT22;6856;51.460;7.158;2023-08-06T16:39:53;18.90;67.10
13569;DHT22;6856;51.460;7.158;2023-08-06T16:42:29;18.90;67.20